sensor_id;sensor_type;location;lat;lon;timestamp;pressure;altitude;pressure_sealevel;temperature;humidity
71791;BME280;59638;52.126;5.434;2023-12-22T00:02:24;100232.00;;;5.84;100.00
71791;BME280;59638;52.126;5.434;2023-12-22T00:04:52;100235.94;;;5.78;100.00
71791;BME280;59638;52.126;5.434;2023-12-22T00:07:19;100238.44;;;5.68;100.00
71791;BME280;59638;52.126;5.434;2023-12-22T00:09:46;100240.47;;;5.54;100.00
71791;BME280;59638;52.126;5.434;2023-12-22T00:12:13;100261.78;;;5.38;100.00
71791;BME280;59638;52.126;5.434;2023-12-22T00:14:39;100283.53;;;5.27;100.00
71791;BME280;59638;52.126;5.434;2023-12-22T00:17:07;100277.22;;;5.18;100.00
71791;BME280;59638;52.126;5.434;2023-12-22T00:19:33;100288.41;;;5.09;100.00
71791;BME280;59638;52.126;5.434;2023-12-22T00:22:00;100273.16;;;5.03;100.00
71791;BME280;59638;52.126;5.434;2023-12-22T00:24:29;100284.69;;;5.01;100.00
71791;BME280;59638;52.126;5.434;2023-12-22T00:26:56;100265.78;;;4.97;100.00
71791;BME280;59638;52.126;5.434;2023-12-22T00:29:22;100259.09;;;4.93;100.00
71791;BME280;59638;52.126;5.434;2023-12-22T00:31:48;100267.06;;;4.91;100.00
71791;BME280;59638;52.126;5.434;2023-12-22T00:34:15;100283.22;;;4.85;100.00
71791;BME280;59638;52.126;5.434;2023-12-22T00:36:42;100290.44;;;4.82;100.00
71791;BME280;59638;52.126;5.434;2023-12-22T00:39:08;100294.63;;;4.84;100.00
71791;BME280;59638;52.126;5.434;2023-12-22T00:41:35;100270.38;;;4.82;100.00
71791;BME280;59638;52.126;5.434;2023-12-22T00:44:01;100264.78;;;4.76;100.00
71791;BME280;59638;52.126;5.434;2023-12-22T00:46:28;100279.16;;;4.81;100.00
71791;BME280;59638;52.126;5.434;2023-12-22T00:48:54;100265.38;;;4.79;100.00
71791;BME280;59638;52.126;5.434;2023-12-22T00:51:21;100271.44;;;4.80;100.00
71791;BME280;59638;52.126;5.434;2023-12-22T00:53:47;100280.47;;;4.76;100.00
71791;BME280;59638;52.126;5.434;2023-12-22T00:56:14;100288.06;;;4.79;100.00
71791;BME280;59638;52.126;5.434;2023-12-22T00:58:40;100288.41;;;4.74;100.00
71791;BME280;59638;52.126;5.434;2023-12-22T01:01:07;100299.09;;;4.71;100.00
71791;BME280;59638;52.126;5.434;2023-12-22T01:03:34;100293.75;;;4.73;100.00
71791;BME280;59638;52.126;5.434;2023-12-22T01:06:00;100291.91;;;4.86;100.00
71791;BME280;59638;52.126;5.434;2023-12-22T01:08:27;100299.78;;;4.97;100.00
71791;BME280;59638;52.126;5.434;2023-12-22T01:10:54;100312.16;;;5.06;100.00
71791;BME280;59638;52.126;5.434;2023-12-22T01:13:20;100316.44;;;5.07;100.00
71791;BME280;59638;52.126;5.434;2023-12-22T01:15:46;100310.03;;;5.11;100.00
71791;BME280;59638;52.126;5.434;2023-12-22T01:18:13;100316.72;;;5.15;100.00
71791;BME280;59638;52.126;5.434;2023-12-22T01:20:39;100315.75;;;5.16;100.00
71791;BME280;59638;52.126;5.434;2023-12-22T01:23:06;100332.28;;;5.17;100.00
71791;BME280;59638;52.126;5.434;2023-12-22T01:25:32;100303.63;;;5.15;100.00
71791;BME280;59638;52.126;5.434;2023-12-22T01:27:59;100309.44;;;5.19;100.00
71791;BME280;59638;52.126;5.434;2023-12-22T01:30:28;100318.88;;;5.22;100.00
71791;BME280;59638;52.126;5.434;2023-12-22T01:32:55;100307.66;;;5.19;100.00
71791;BME280;59638;52.126;5.434;2023-12-22T01:35:22;100306.72;;;5.21;100.00
71791;BME280;59638;52.126;5.434;2023-12-22T01:37:48;100300.28;;;5.13;100.00
71791;BME280;59638;52.126;5.434;2023-12-22T01:40:16;100303.59;;;5.04;100.00
71791;BME280;59638;52.126;5.434;2023-12-22T01:42:42;100314.06;;;5.04;100.00
71791;BME280;59638;52.126;5.434;2023-12-22T01:45:09;100303.34;;;5.07;100.00
71791;BME280;59638;52.126;5.434;2023-12-22T01:47:37;100295.50;;;5.07;100.00
71791;BME280;59638;52.126;5.434;2023-12-22T01:50:04;100297.16;;;5.08;100.00
71791;BME280;59638;52.126;5.434;2023-12-22T01:52:31;100295.38;;;4.98;100.00
71791;BME280;59638;52.126;5.434;2023-12-22T01:54:57;100293.09;;;4.93;100.00
71791;BME280;59638;52.126;5.434;2023-12-22T01:57:24;100294.06;;;4.92;100.00
71791;BME280;59638;52.126;5.434;2023-12-22T01:59:50;100307.13;;;4.92;100.00
71791;BME280;59638;52.126;5.434;2023-12-22T02:02:17;100320.22;;;4.92;100.00
71791;BME280;59638;52.126;5.434;2023-12-22T02:04:44;100311.41;;;4.93;100.00
71791;BME280;59638;52.126;5.434;2023-12-22T02:07:11;100309.03;;;4.90;100.00
71791;BME280;59638;52.126;5.434;2023-12-22T02:09:38;100309.25;;;4.87;100.00
71791;BME280;59638;52.126;5.434;2023-12-22T02:12:05;100308.09;;;4.91;100.00
71791;BME280;59638;52.126;5.434;2023-12-22T02:14:31;100308.78;;;4.93;100.00
71791;BME280;59638;52.126;5.434;2023-12-22T02:17:05;100303.81;;;5.01;100.00
71791;BME280;59638;52.126;5.434;2023-12-22T02:19:41;100301.56;;;5.08;100.00
71791;BME280;59638;52.126;5.434;2023-12-22T02:22:10;100280.44;;;5.11;100.00
71791;BME280;59638;52.126;5.434;2023-12-22T02:24:38;100287.44;;;5.10;100.00
71791;BME280;59638;52.126;5.434;2023-12-22T02:27:09;100281.47;;;5.08;100.00
71791;BME280;59638;52.126;5.434;2023-12-22T02:29:43;100269.59;;;5.04;100.00
71791;BME280;59638;52.126;5.434;2023-12-22T02:32:19;100281.72;;;5.05;100.00
71791;BME280;59638;52.126;5.434;2023-12-22T02:34:51;100288.63;;;5.06;100.00
71791;BME280;59638;52.126;5.434;2023-12-22T02:37:20;100262.25;;;5.09;100.00
71791;BME280;59638;52.126;5.434;2023-12-22T02:39:49;100274.84;;;5.15;100.00
71791;BME280;59638;52.126;5.434;2023-12-22T02:42:17;100269.88;;;5.24;100.00
71791;BME280;59638;52.126;5.434;2023-12-22T02:44:44;100258.09;;;5.29;100.00
71791;BME280;59638;52.126;5.434;2023-12-22T02:47:10;100235.13;;;5.33;100.00
71791;BME280;59638;52.126;5.434;2023-12-22T02:49:36;100262.97;;;5.34;100.00
71791;BME280;59638;52.126;5.434;2023-12-22T02:52:03;100252.50;;;5.45;100.00
71791;BME280;59638;52.126;5.434;2023-12-22T02:54:30;100238.94;;;5.62;100.00
71791;BME280;59638;52.126;5.434;2023-12-22T02:56:57;100239.50;;;5.77;100.00
71791;BME280;59638;52.126;5.434;2023-12-22T02:59:25;100238.88;;;5.85;100.00
71791;BME280;59638;52.126;5.434;2023-12-22T03:01:54;100244.84;;;5.98;100.00
71791;BME280;59638;52.126;5.434;2023-12-22T03:04:20;100253.88;;;5.94;100.00
71791;BME280;59638;52.126;5.434;2023-12-22T03:06:47;100265.81;;;5.98;100.00
71791;BME280;59638;52.126;5.434;2023-12-22T03:09:13;100261.16;;;6.02;100.00
71791;BME280;59638;52.126;5.434;2023-12-22T03:11:39;100271.72;;;6.11;100.00
71791;BME280;59638;52.126;5.434;2023-12-22T03:14:06;100273.16;;;6.15;100.00
71791;BME280;59638;52.126;5.434;2023-12-22T03:16:32;100279.56;;;6.22;100.00
71791;BME280;59638;52.126;5.434;2023-12-22T03:18:59;100282.19;;;6.22;100.00
71791;BME280;59638;52.126;5.434;2023-12-22T03:21:25;100284.47;;;6.16;100.00
71791;BME280;59638;52.126;5.434;2023-12-22T03:23:52;100286.22;;;6.26;100.00
71791;BME280;59638;52.126;5.434;2023-12-22T03:26:18;100290.53;;;6.28;100.00
71791;BME280;59638;52.126;5.434;2023-12-22T03:28:45;100295.03;;;6.25;100.00
71791;BME280;59638;52.126;5.434;2023-12-22T03:31:11;100285.47;;;6.36;100.00
71791;BME280;59638;52.126;5.434;2023-12-22T03:33:38;100272.84;;;6.41;100.00
71791;BME280;59638;52.126;5.434;2023-12-22T03:36:04;100293.06;;;6.50;100.00
71791;BME280;59638;52.126;5.434;2023-12-22T03:38:31;100317.94;;;6.56;100.00
71791;BME280;59638;52.126;5.434;2023-12-22T03:40:57;100328.78;;;6.62;100.00
71791;BME280;59638;52.126;5.434;2023-12-22T03:43:24;100336.47;;;6.32;100.00
71791;BME280;59638;52.126;5.434;2023-12-22T03:45:50;100358.69;;;5.94;100.00
71791;BME280;59638;52.126;5.434;2023-12-22T03:48:17;100360.78;;;5.66;100.00
71791;BME280;59638;52.126;5.434;2023-12-22T03:50:43;100342.41;;;5.33;100.00
71791;BME280;59638;52.126;5.434;2023-12-22T03:53:10;100339.53;;;5.13;100.00
71791;BME280;59638;52.126;5.434;2023-12-22T03:55:36;100347.25;;;5.04;100.00
71791;BME280;59638;52.126;5.434;2023-12-22T03:58:03;100341.38;;;5.00;100.00
71791;BME280;59638;52.126;5.434;2023-12-22T04:00:31;100339.00;;;4.97;100.00
71791;BME280;59638;52.126;5.434;2023-12-22T04:02:57;100346.63;;;5.00;100.00
71791;BME280;59638;52.126;5.434;2023-12-22T04:05:24;100334.28;;;5.02;100.00
71791;BME280;59638;52.126;5.434;2023-12-22T04:07:50;100341.38;;;5.00;100.00
71791;BME280;59638;52.126;5.434;2023-12-22T04:10:17;100338.06;;;4.98;100.00
71791;BME280;59638;52.126;5.434;2023-12-22T04:12:44;100339.28;;;5.05;100.00
71791;BME280;59638;52.126;5.434;2023-12-22T04:15:10;100340.34;;;5.03;100.00
71791;BME280;59638;52.126;5.434;2023-12-22T04:17:37;100337.59;;;5.04;100.00
71791;BME280;59638;52.126;5.434;2023-12-22T04:20:04;100345.34;;;5.06;100.00
71791;BME280;59638;52.126;5.434;2023-12-22T04:22:31;100342.38;;;5.10;100.00
71791;BME280;59638;52.126;5.434;2023-12-22T04:24:57;100340.47;;;5.12;100.00
71791;BME280;59638;52.126;5.434;2023-12-22T04:27:24;100350.72;;;5.15;100.00
71791;BME280;59638;52.126;5.434;2023-12-22T04:29:50;100346.91;;;5.19;100.00
71791;BME280;59638;52.126;5.434;2023-12-22T04:32:17;100353.34;;;5.27;100.00
71791;BME280;59638;52.126;5.434;2023-12-22T04:34:43;100356.91;;;5.26;100.00
71791;BME280;59638;52.126;5.434;2023-12-22T04:37:09;100341.72;;;5.31;100.00
71791;BME280;59638;52.126;5.434;2023-12-22T04:39:36;100339.47;;;5.37;100.00
71791;BME280;59638;52.126;5.434;2023-12-22T04:42:02;100334.22;;;5.37;100.00
71791;BME280;59638;52.126;5.434;2023-12-22T04:44:29;100348.97;;;5.38;100.00
71791;BME280;59638;52.126;5.434;2023-12-22T04:46:55;100352.88;;;5.33;100.00
71791;BME280;59638;52.126;5.434;2023-12-22T04:49:22;100353.13;;;5.30;100.00
71791;BME280;59638;52.126;5.434;2023-12-22T04:51:48;100360.03;;;5.31;100.00
71791;BME280;59638;52.126;5.434;2023-12-22T04:54:15;100354.56;;;5.34;100.00
71791;BME280;59638;52.126;5.434;2023-12-22T04:56:41;100359.56;;;5.37;100.00
71791;BME280;59638;52.126;5.434;2023-12-22T04:59:08;100347.19;;;5.39;100.00
71791;BME280;59638;52.126;5.434;2023-12-22T05:01:34;100348.03;;;5.39;100.00
71791;BME280;59638;52.126;5.434;2023-12-22T05:04:01;100350.66;;;5.39;100.00
71791;BME280;59638;52.126;5.434;2023-12-22T05:06:28;100346.72;;;5.45;100.00
71791;BME280;59638;52.126;5.434;2023-12-22T05:08:57;100345.06;;;5.44;100.00
71791;BME280;59638;52.126;5.434;2023-12-22T05:11:24;100339.84;;;5.44;100.00
71791;BME280;59638;52.126;5.434;2023-12-22T05:13:50;100339.38;;;5.50;100.00
71791;BME280;59638;52.126;5.434;2023-12-22T05:16:17;100346.97;;;5.53;100.00
71791;BME280;59638;52.126;5.434;2023-12-22T05:18:43;100336.97;;;5.58;100.00
71791;BME280;59638;52.126;5.434;2023-12-22T05:21:12;100332.94;;;5.65;100.00
71791;BME280;59638;52.126;5.434;2023-12-22T05:23:39;100330.34;;;5.77;100.00
71791;BME280;59638;52.126;5.434;2023-12-22T05:26:06;100321.41;;;5.90;100.00
71791;BME280;59638;52.126;5.434;2023-12-22T05:28:32;100322.69;;;6.07;100.00
71791;BME280;59638;52.126;5.434;2023-12-22T05:30:59;100328.63;;;6.20;100.00
71791;BME280;59638;52.126;5.434;2023-12-22T05:33:25;100331.72;;;6.25;100.00
71791;BME280;59638;52.126;5.434;2023-12-22T05:35:52;100327.22;;;6.28;100.00
71791;BME280;59638;52.126;5.434;2023-12-22T05:38:18;100317.28;;;6.42;100.00
71791;BME280;59638;52.126;5.434;2023-12-22T05:40:45;100318.81;;;6.45;100.00
71791;BME280;59638;52.126;5.434;2023-12-22T05:43:12;100317.13;;;6.55;100.00
71791;BME280;59638;52.126;5.434;2023-12-22T05:45:39;100315.53;;;6.64;100.00
71791;BME280;59638;52.126;5.434;2023-12-22T05:48:06;100313.94;;;6.72;100.00
71791;BME280;59638;52.126;5.434;2023-12-22T05:50:33;100309.47;;;6.84;100.00
71791;BME280;59638;52.126;5.434;2023-12-22T05:53:00;100324.34;;;6.95;100.00
71791;BME280;59638;52.126;5.434;2023-12-22T05:55:26;100314.69;;;6.95;100.00
71791;BME280;59638;52.126;5.434;2023-12-22T05:57:53;100324.66;;;7.01;100.00
71791;BME280;59638;52.126;5.434;2023-12-22T06:00:20;100327.44;;;7.00;100.00
71791;BME280;59638;52.126;5.434;2023-12-22T06:02:46;100334.06;;;7.04;100.00
71791;BME280;59638;52.126;5.434;2023-12-22T06:05:13;100327.16;;;7.03;100.00
71791;BME280;59638;52.126;5.434;2023-12-22T06:07:40;100317.88;;;6.99;100.00
71791;BME280;59638;52.126;5.434;2023-12-22T06:10:07;100316.66;;;7.03;100.00
71791;BME280;59638;52.126;5.434;2023-12-22T06:12:36;100319.75;;;7.08;100.00
71791;BME280;59638;52.126;5.434;2023-12-22T06:15:03;100305.06;;;7.05;100.00
71791;BME280;59638;52.126;5.434;2023-12-22T06:17:29;100316.66;;;7.03;100.00
71791;BME280;59638;52.126;5.434;2023-12-22T06:19:56;100315.00;;;7.02;100.00
71791;BME280;59638;52.126;5.434;2023-12-22T06:22:22;100309.25;;;7.08;100.00
71791;BME280;59638;52.126;5.434;2023-12-22T06:24:49;100314.50;;;7.08;100.00
71791;BME280;59638;52.126;5.434;2023-12-22T06:27:16;100335.94;;;7.13;100.00
71791;BME280;59638;52.126;5.434;2023-12-22T06:29:43;100320.38;;;7.21;100.00
71791;BME280;59638;52.126;5.434;2023-12-22T06:32:09;100312.38;;;7.23;100.00
71791;BME280;59638;52.126;5.434;2023-12-22T06:34:36;100307.81;;;7.25;100.00
71791;BME280;59638;52.126;5.434;2023-12-22T06:37:03;100310.06;;;7.29;100.00
71791;BME280;59638;52.126;5.434;2023-12-22T06:39:29;100312.09;;;7.26;100.00
71791;BME280;59638;52.126;5.434;2023-12-22T06:41:56;100319.72;;;7.29;100.00
71791;BME280;59638;52.126;5.434;2023-12-22T06:44:22;100311.88;;;7.39;100.00
71791;BME280;59638;52.126;5.434;2023-12-22T06:46:48;100325.47;;;7.44;100.00
71791;BME280;59638;52.126;5.434;2023-12-22T06:49:15;100306.13;;;7.45;100.00
71791;BME280;59638;52.126;5.434;2023-12-22T06:51:42;100313.03;;;7.46;100.00
71791;BME280;59638;52.126;5.434;2023-12-22T06:54:08;100309.78;;;7.53;100.00
71791;BME280;59638;52.126;5.434;2023-12-22T06:56:38;100315.72;;;7.55;100.00
71791;BME280;59638;52.126;5.434;2023-12-22T06:59:06;100318.91;;;7.59;100.00
71791;BME280;59638;52.126;5.434;2023-12-22T07:01:34;100312.25;;;7.55;100.00
71791;BME280;59638;52.126;5.434;2023-12-22T07:04:02;100315.84;;;7.54;100.00
71791;BME280;59638;52.126;5.434;2023-12-22T07:06:31;100313.94;;;7.56;100.00
71791;BME280;59638;52.126;5.434;2023-12-22T07:11:49;100311.75;;;7.61;100.00
71791;BME280;59638;52.126;5.434;2023-12-22T07:14:17;100302.91;;;7.62;100.00
71791;BME280;59638;52.126;5.434;2023-12-22T07:16:44;100296.81;;;7.61;100.00
71791;BME280;59638;52.126;5.434;2023-12-22T07:19:11;100308.16;;;7.72;100.00
71791;BME280;59638;52.126;5.434;2023-12-22T07:21:39;100306.38;;;7.72;100.00
71791;BME280;59638;52.126;5.434;2023-12-22T07:24:08;100324.25;;;7.78;100.00
71791;BME280;59638;52.126;5.434;2023-12-22T07:26:35;100327.44;;;7.82;100.00
71791;BME280;59638;52.126;5.434;2023-12-22T07:29:03;100324.53;;;7.85;100.00
71791;BME280;59638;52.126;5.434;2023-12-22T07:31:29;100329.25;;;7.81;100.00
71791;BME280;59638;52.126;5.434;2023-12-22T07:33:56;100334.66;;;7.89;100.00
71791;BME280;59638;52.126;5.434;2023-12-22T07:36:22;100328.44;;;7.90;100.00
71791;BME280;59638;52.126;5.434;2023-12-22T07:38:49;100321.81;;;7.86;100.00
71791;BME280;59638;52.126;5.434;2023-12-22T07:41:15;100320.31;;;7.94;100.00
71791;BME280;59638;52.126;5.434;2023-12-22T07:43:43;100321.56;;;7.99;100.00
71791;BME280;59638;52.126;5.434;2023-12-22T07:46:16;100327.06;;;7.96;100.00
71791;BME280;59638;52.126;5.434;2023-12-22T07:48:43;100326.53;;;7.93;100.00
71791;BME280;59638;52.126;5.434;2023-12-22T07:51:11;100329.09;;;7.83;100.00
71791;BME280;59638;52.126;5.434;2023-12-22T07:53:38;100332.47;;;7.64;100.00
71791;BME280;59638;52.126;5.434;2023-12-22T07:56:05;100313.31;;;7.43;100.00
71791;BME280;59638;52.126;5.434;2023-12-22T07:58:34;100315.13;;;7.21;100.00
71791;BME280;59638;52.126;5.434;2023-12-22T08:01:01;100323.06;;;7.10;100.00
71791;BME280;59638;52.126;5.434;2023-12-22T08:03:27;100334.06;;;7.04;100.00
71791;BME280;59638;52.126;5.434;2023-12-22T08:05:54;100343.72;;;7.03;100.00
71791;BME280;59638;52.126;5.434;2023-12-22T08:08:21;100337.38;;;7.06;100.00
71791;BME280;59638;52.126;5.434;2023-12-22T08:10:47;100340.47;;;7.11;100.00
71791;BME280;59638;52.126;5.434;2023-12-22T08:13:14;100337.19;;;7.19;100.00
71791;BME280;59638;52.126;5.434;2023-12-22T08:15:41;100321.19;;;7.22;100.00
71791;BME280;59638;52.126;5.434;2023-12-22T08:18:07;100321.75;;;7.25;100.00
71791;BME280;59638;52.126;5.434;2023-12-22T08:20:34;100323.03;;;7.31;100.00
71791;BME280;59638;52.126;5.434;2023-12-22T08:23:06;100329.56;;;7.36;100.00
71791;BME280;59638;52.126;5.434;2023-12-22T08:25:37;100319.97;;;7.47;100.00
71791;BME280;59638;52.126;5.434;2023-12-22T08:28:06;100314.19;;;7.53;100.00
71791;BME280;59638;52.126;5.434;2023-12-22T08:30:33;100305.06;;;7.57;100.00
71791;BME280;59638;52.126;5.434;2023-12-22T08:33:00;100290.72;;;7.61;100.00
71791;BME280;59638;52.126;5.434;2023-12-22T08:35:26;100282.13;;;7.59;100.00
71791;BME280;59638;52.126;5.434;2023-12-22T08:37:53;100290.97;;;7.58;100.00
71791;BME280;59638;52.126;5.434;2023-12-22T08:40:20;100299.56;;;7.60;100.00
71791;BME280;59638;52.126;5.434;2023-12-22T08:42:53;100282.41;;;7.56;100.00
71791;BME280;59638;52.126;5.434;2023-12-22T08:45:28;100277.16;;;7.56;100.00
71791;BME280;59638;52.126;5.434;2023-12-22T08:47:55;100280.75;;;7.55;100.00
71791;BME280;59638;52.126;5.434;2023-12-22T08:50:22;100284.91;;;7.57;100.00
71791;BME280;59638;52.126;5.434;2023-12-22T08:52:48;100273.56;;;7.57;100.00
71791;BME280;59638;52.126;5.434;2023-12-22T08:55:15;100280.22;;;7.61;100.00
71791;BME280;59638;52.126;5.434;2023-12-22T08:57:42;100273.63;;;7.67;100.00
71791;BME280;59638;52.126;5.434;2023-12-22T09:00:22;100277.47;;;7.72;100.00
71791;BME280;59638;52.126;5.434;2023-12-22T09:02:48;100271.69;;;7.78;100.00
71791;BME280;59638;52.126;5.434;2023-12-22T09:05:15;100257.78;;;7.87;100.00
71791;BME280;59638;52.126;5.434;2023-12-22T09:07:41;100280.22;;;8.01;100.00
71791;BME280;59638;52.126;5.434;2023-12-22T09:10:08;100280.22;;;8.11;100.00
71791;BME280;59638;52.126;5.434;2023-12-22T09:12:34;100291.84;;;8.18;100.00
71791;BME280;59638;52.126;5.434;2023-12-22T09:15:01;100275.00;;;8.21;100.00
71791;BME280;59638;52.126;5.434;2023-12-22T09:17:27;100280.09;;;8.22;100.00
71791;BME280;59638;52.126;5.434;2023-12-22T09:19:56;100286.03;;;8.24;100.00
71791;BME280;59638;52.126;5.434;2023-12-22T09:22:23;100287.44;;;8.28;100.00
71791;BME280;59638;52.126;5.434;2023-12-22T09:24:49;100287.00;;;8.23;100.00
71791;BME280;59638;52.126;5.434;2023-12-22T09:27:16;100293.63;;;8.08;100.00
71791;BME280;59638;52.126;5.434;2023-12-22T09:29:42;100288.59;;;7.85;100.00
71791;BME280;59638;52.126;5.434;2023-12-22T09:32:09;100304.31;;;7.66;100.00
71791;BME280;59638;52.126;5.434;2023-12-22T09:34:35;100303.41;;;7.56;100.00
71791;BME280;59638;52.126;5.434;2023-12-22T09:37:02;100313.31;;;7.43;100.00
71791;BME280;59638;52.126;5.434;2023-12-22T09:39:28;100303.38;;;7.25;100.00
71791;BME280;59638;52.126;5.434;2023-12-22T09:41:55;100287.97;;;7.11;100.00
71791;BME280;59638;52.126;5.434;2023-12-22T09:44:22;100293.22;;;7.11;100.00
71791;BME280;59638;52.126;5.434;2023-12-22T09:46:49;100294.84;;;7.02;100.00
71791;BME280;59638;52.126;5.434;2023-12-22T09:49:20;100286.28;;;7.00;100.00
71791;BME280;59638;52.126;5.434;2023-12-22T09:51:49;100291.09;;;7.05;100.00
71791;BME280;59638;52.126;5.434;2023-12-22T09:54:17;100282.16;;;7.07;100.00
71791;BME280;59638;52.126;5.434;2023-12-22T09:56:44;100287.97;;;7.11;100.00
71791;BME280;59638;52.126;5.434;2023-12-22T09:59:12;100283.50;;;7.23;100.00
71791;BME280;59638;52.126;5.434;2023-12-22T10:01:43;100270.16;;;7.35;100.00
71791;BME280;59638;52.126;5.434;2023-12-22T10:04:15;100273.84;;;7.54;100.00
71791;BME280;59638;52.126;5.434;2023-12-22T10:06:43;100285.34;;;7.72;100.00
71791;BME280;59638;52.126;5.434;2023-12-22T10:09:12;100286.53;;;7.89;100.00
71791;BME280;59638;52.126;5.434;2023-12-22T10:11:43;100280.06;;;8.03;100.00
71791;BME280;59638;52.126;5.434;2023-12-22T10:14:10;100289.22;;;8.18;100.00
71791;BME280;59638;52.126;5.434;2023-12-22T10:16:38;100286.22;;;8.32;100.00
71791;BME280;59638;52.126;5.434;2023-12-22T10:19:05;100289.03;;;8.40;100.00
71791;BME280;59638;52.126;5.434;2023-12-22T10:21:31;100301.63;;;8.47;100.00
71791;BME280;59638;52.126;5.434;2023-12-22T10:24:01;100288.47;;;8.47;100.00
71791;BME280;59638;52.126;5.434;2023-12-22T10:26:28;100277.13;;;8.46;100.00
71791;BME280;59638;52.126;5.434;2023-12-22T10:28:54;100289.44;;;8.46;100.00
71791;BME280;59638;52.126;5.434;2023-12-22T10:31:21;100289.56;;;8.44;100.00
71791;BME280;59638;52.126;5.434;2023-12-22T10:33:47;100289.69;;;8.42;100.00
71791;BME280;59638;52.126;5.434;2023-12-22T10:36:14;100280.00;;;8.43;100.00
71791;BME280;59638;52.126;5.434;2023-12-22T10:38:41;100283.22;;;8.47;100.00
71791;BME280;59638;52.126;5.434;2023-12-22T10:41:09;100297.47;;;8.54;100.00
71791;BME280;59638;52.126;5.434;2023-12-22T10:43:39;100306.72;;;8.58;100.00
71791;BME280;59638;52.126;5.434;2023-12-22T10:46:07;100299.81;;;8.57;100.00
71791;BME280;59638;52.126;5.434;2023-12-22T10:48:40;100290.13;;;8.57;100.00
71791;BME280;59638;52.126;5.434;2023-12-22T10:51:10;100296.47;;;8.64;100.00
71791;BME280;59638;52.126;5.434;2023-12-22T10:53:40;100287.34;;;8.68;100.00
71791;BME280;59638;52.126;5.434;2023-12-22T10:56:06;100286.81;;;8.75;100.00
71791;BME280;59638;52.126;5.434;2023-12-22T10:58:33;100286.25;;;8.81;100.00
71791;BME280;59638;52.126;5.434;2023-12-22T11:01:02;100286.25;;;8.81;100.00
71791;BME280;59638;52.126;5.434;2023-12-22T11:03:32;100282.38;;;8.85;100.00
71791;BME280;59638;52.126;5.434;2023-12-22T11:06:04;100280.84;;;8.82;100.00
71791;BME280;59638;52.126;5.434;2023-12-22T11:08:35;100272.38;;;8.88;100.00
71791;BME280;59638;52.126;5.434;2023-12-22T11:11:05;100277.66;;;8.88;100.00
71791;BME280;59638;52.126;5.434;2023-12-22T11:13:34;100260.06;;;8.98;100.00
71791;BME280;59638;52.126;5.434;2023-12-22T11:16:01;100288.44;;;9.05;100.00
71791;BME280;59638;52.126;5.434;2023-12-22T11:18:28;100273.31;;;9.07;100.00
71791;BME280;59638;52.126;5.434;2023-12-22T11:20:56;100274.00;;;9.09;100.00
71791;BME280;59638;52.126;5.434;2023-12-22T11:23:23;100269.56;;;9.09;100.00
71791;BME280;59638;52.126;5.434;2023-12-22T11:25:52;100280.50;;;9.14;100.00
71791;BME280;59638;52.126;5.434;2023-12-22T11:28:20;100258.22;;;9.09;100.00
71791;BME280;59638;52.126;5.434;2023-12-22T11:30:50;100272.34;;;9.08;100.00
71791;BME280;59638;52.126;5.434;2023-12-22T11:33:25;100266.56;;;8.94;100.00
71791;BME280;59638;52.126;5.434;2023-12-22T11:35:53;100264.34;;;8.99;100.00
71791;BME280;59638;52.126;5.434;2023-12-22T11:38:22;100265.28;;;9.08;100.00
71791;BME280;59638;52.126;5.434;2023-12-22T11:40:51;100267.03;;;9.17;100.00
71791;BME280;59638;52.126;5.434;2023-12-22T11:43:19;100273.56;;;9.23;100.00
71791;BME280;59638;52.126;5.434;2023-12-22T11:45:51;100256.50;;;9.27;100.00
71791;BME280;59638;52.126;5.434;2023-12-22T11:48:18;100258.97;;;9.29;100.00
71791;BME280;59638;52.126;5.434;2023-12-22T11:50:45;100260.38;;;9.33;100.00
71791;BME280;59638;52.126;5.434;2023-12-22T11:53:23;100247.34;;;9.31;100.00
71791;BME280;59638;52.126;5.434;2023-12-22T11:55:57;100252.16;;;9.36;100.00
71791;BME280;59638;52.126;5.434;2023-12-22T11:58:43;100243.16;;;9.38;100.00
71791;BME280;59638;52.126;5.434;2023-12-22T12:01:13;100255.34;;;9.39;100.00
71791;BME280;59638;52.126;5.434;2023-12-22T12:03:49;100252.25;;;9.44;100.00
71791;BME280;59638;52.126;5.434;2023-12-22T12:06:22;100236.34;;;9.45;100.00
71791;BME280;59638;52.126;5.434;2023-12-22T12:09:01;100232.88;;;9.45;100.00
71791;BME280;59638;52.126;5.434;2023-12-22T12:14:29;100217.34;;;9.42;100.00
71791;BME280;59638;52.126;5.434;2023-12-22T12:17:03;100206.66;;;9.43;100.00
71791;BME280;59638;52.126;5.434;2023-12-22T12:19:30;100222.47;;;9.43;100.00
71791;BME280;59638;52.126;5.434;2023-12-22T12:21:57;100206.06;;;9.49;100.00
71791;BME280;59638;52.126;5.434;2023-12-22T12:24:25;100213.84;;;9.51;100.00
71791;BME280;59638;52.126;5.434;2023-12-22T12:26:51;100229.78;;;9.49;100.00
71791;BME280;59638;52.126;5.434;2023-12-22T12:29:20;100220.91;;;9.50;100.00
71791;BME280;59638;52.126;5.434;2023-12-22T12:31:47;100219.94;;;9.51;100.00
71791;BME280;59638;52.126;5.434;2023-12-22T12:34:14;100223.94;;;9.56;100.00
71791;BME280;59638;52.126;5.434;2023-12-22T12:36:43;100209.50;;;9.60;100.00
71791;BME280;59638;52.126;5.434;2023-12-22T12:39:14;100190.38;;;9.58;100.00
71791;BME280;59638;52.126;5.434;2023-12-22T12:41:42;100197.75;;;9.54;100.00
71791;BME280;59638;52.126;5.434;2023-12-22T12:44:12;100224.41;;;9.51;100.00
71791;BME280;59638;52.126;5.434;2023-12-22T12:46:41;100191.66;;;9.53;100.00
71791;BME280;59638;52.126;5.434;2023-12-22T12:49:11;100205.88;;;9.61;100.00
71791;BME280;59638;52.126;5.434;2023-12-22T12:51:41;100194.75;;;9.67;100.00
71791;BME280;59638;52.126;5.434;2023-12-22T12:54:10;100213.59;;;9.72;100.00
71791;BME280;59638;52.126;5.434;2023-12-22T12:56:41;100213.59;;;9.72;100.00
71791;BME280;59638;52.126;5.434;2023-12-22T12:59:09;100212.22;;;9.68;100.00